Time;durP1;ratioP1;P1;durP2;ratioP2;P2;SDS_P1;SDS_P2;PMS_P1;PMS_P2;Temp;Humidity;BMP_temperature;BMP_pressure;BME280_temperature;BME280_humidity;BME280_pressure;Samples;Min_cycle;Max_cycle;Signal;HPM_P1;HPM_P2
2021/09/20 00:01:00;;;;;;;4.10;3.40;;;13.80;71.70;;;;;;5023164;28;20418;-77
2021/09/20 00:03:26;;;;;;;4.55;3.53;;;13.80;71.70;;;;;;5016017;28;20029;-77
2021/09/20 00:05:51;;;;;;;4.78;3.90;;;13.80;71.80;;;;;;5015053;28;20038;-78
2021/09/20 00:08:17;;;;;;;4.90;3.80;;;13.80;71.80;;;;;;5023591;28;20361;-78
2021/09/20 00:10:42;;;;;;;4.22;3.05;;;13.80;72.00;;;;;;5019534;28;20025;-78
2021/09/20 00:13:08;;;;;;;3.67;2.95;;;13.80;72.00;;;;;;5017160;28;20061;-78
2021/09/20 00:15:34;;;;;;;3.83;3.13;;;13.80;72.00;;;;;;5013412;28;20395;-78
2021/09/20 00:17:59;;;;;;;4.72;3.60;;;13.80;72.00;;;;;;5020883;28;20495;-78
2021/09/20 00:20:25;;;;;;;3.83;3.33;;;13.70;71.90;;;;;;5018227;28;26004;-78
2021/09/20 00:22:52;;;;;;;5.07;3.45;;;13.70;72.10;;;;;;5017990;28;20083;-78
2021/09/20 00:25:18;;;;;;;4.38;3.20;;;13.60;72.30;;;;;;5006610;28;20037;-79
2021/09/20 00:27:43;;;;;;;4.28;3.58;;;13.70;72.40;;;;;;5015085;28;20040;-78
2021/09/20 00:30:11;;;;;;;6.05;4.45;;;13.60;72.30;;;;;;5022365;28;20030;-77
2021/09/20 00:32:36;;;;;;;5.32;3.13;;;13.50;72.40;;;;;;5031392;28;20096;-78
2021/09/20 00:35:03;;;;;;;4.00;2.92;;;13.40;72.50;;;;;;5032203;28;20475;-78
2021/09/20 00:37:28;;;;;;;4.22;3.58;;;13.50;72.60;;;;;;5031084;28;20021;-78
2021/09/20 00:39:55;;;;;;;5.35;3.20;;;13.50;72.60;;;;;;5031648;28;20050;-79
2021/09/20 00:42:21;;;;;;;4.05;3.08;;;13.50;72.60;;;;;;5031890;28;20014;-78
2021/09/20 00:44:46;;;;;;;7.22;4.05;;;13.50;72.50;;;;;;5013815;28;20144;-78
2021/09/20 00:47:12;;;;;;;5.07;3.80;;;13.50;72.50;;;;;;5024611;28;20026;-79
2021/09/20 00:49:37;;;;;;;4.05;3.42;;;13.50;72.60;;;;;;5012577;28;20395;-78
2021/09/20 00:52:03;;;;;;;3.90;3.20;;;13.40;72.60;;;;;;5013934;28;20026;-78
2021/09/20 00:54:29;;;;;;;4.75;3.67;;;13.50;72.80;;;;;;5017549;28;20130;-79
2021/09/20 00:56:55;;;;;;;4.38;3.30;;;13.50;72.60;;;;;;5020405;28;20755;-79
2021/09/20 00:59:21;;;;;;;3.90;3.30;;;13.40;72.70;;;;;;5014730;28;20025;-79
2021/09/20 01:01:47;;;;;;;5.35;4.07;;;13.40;72.70;;;;;;5017408;28;20103;-79
2021/09/20 01:04:13;;;;;;;5.25;3.70;;;13.50;72.70;;;;;;5035114;28;20479;-79
2021/09/20 01:06:38;;;;;;;5.30;4.10;;;13.40;72.70;;;;;;5049921;28;20033;-79
2021/09/20 01:09:04;;;;;;;4.63;3.90;;;13.30;72.70;;;;;;5049899;28;20041;-79
2021/09/20 01:11:31;;;;;;;5.10;4.22;;;13.30;72.70;;;;;;5032254;28;20092;-79
2021/09/20 01:13:56;;;;;;;5.00;3.80;;;13.20;72.70;;;;;;5022205;28;20126;-79
2021/09/20 01:16:22;;;;;;;5.97;4.05;;;13.20;72.70;;;;;;5003773;28;20046;-79
2021/09/20 01:18:47;;;;;;;5.47;3.33;;;13.10;72.60;;;;;;5017193;28;20076;-78
2021/09/20 01:21:15;;;;;;;5.70;3.67;;;13.10;72.70;;;;;;5018312;28;20025;-78
2021/09/20 01:23:42;;;;;;;5.35;3.45;;;13.10;72.60;;;;;;5003595;28;20464;-78
2021/09/20 01:26:09;;;;;;;3.88;2.97;;;13.20;72.60;;;;;;5001178;28;20083;-78
2021/09/20 01:28:34;;;;;;;3.88;2.80;;;13.20;73.10;;;;;;5020688;28;20063;-78
2021/09/20 01:31:00;;;;;;;4.18;3.00;;;13.30;72.40;;;;;;5019234;28;20061;-78
2021/09/20 01:33:25;;;;;;;4.95;3.63;;;13.30;72.10;;;;;;5015158;28;20116;-78
2021/09/20 01:35:51;;;;;;;4.05;3.50;;;13.30;71.90;;;;;;5029954;28;20025;-78
2021/09/20 01:38:16;;;;;;;3.80;2.83;;;13.30;72.00;;;;;;5049546;28;20029;-78
2021/09/20 01:40:42;;;;;;;3.65;2.80;;;13.30;71.90;;;;;;5032954;28;20029;-78
2021/09/20 01:43:08;;;;;;;4.00;3.33;;;13.30;71.70;;;;;;5048061;28;20033;-79
2021/09/20 01:45:33;;;;;;;2.85;2.50;;;13.30;71.50;;;;;;5031232;28;20129;-78
2021/09/20 01:47:59;;;;;;;3.42;3.00;;;13.30;71.50;;;;;;5030331;28;20026;-78
2021/09/20 01:50:24;;;;;;;4.10;2.88;;;13.40;71.40;;;;;;5030505;28;20475;-78
2021/09/20 01:52:51;;;;;;;2.50;2.30;;;13.40;71.20;;;;;;5031669;28;20125;-78
2021/09/20 01:55:17;;;;;;;4.85;3.53;;;13.40;71.20;;;;;;5022396;28;20399;-78
2021/09/20 01:57:43;;;;;;;3.47;2.90;;;13.40;71.10;;;;;;5029424;28;20029;-78
2021/09/20 02:00:11;;;;;;;3.92;2.80;;;13.40;70.90;;;;;;5012735;28;20025;-79
2021/09/20 02:02:37;;;;;;;2.70;2.10;;;13.30;70.80;;;;;;5029294;28;20036;-78
2021/09/20 02:05:04;;;;;;;3.10;2.50;;;13.30;70.70;;;;;;5029911;28;20087;-78
2021/09/20 02:07:29;;;;;;;3.33;2.65;;;13.40;70.80;;;;;;5030180;28;20018;-79
2021/09/20 02:09:55;;;;;;;2.90;2.60;;;13.40;70.80;;;;;;5030893;28;20352;-78
2021/09/20 02:12:20;;;;;;;2.75;2.25;;;13.40;70.80;;;;;;5030658;28;20024;-78
2021/09/20 02:14:46;;;;;;;3.22;2.47;;;13.40;70.60;;;;;;5030407;28;20416;-79
2021/09/20 02:17:11;;;;;;;2.53;2.15;;;13.40;70.60;;;;;;5012478;28;20246;-78
2021/09/20 02:19:37;;;;;;;1.90;1.65;;;13.40;70.50;;;;;;5032624;28;20538;-79
2021/09/20 02:22:02;;;;;;;3.42;2.58;;;13.40;70.40;;;;;;5034104;28;20029;-78
2021/09/20 02:24:28;;;;;;;4.75;2.60;;;13.30;70.30;;;;;;5034220;28;20088;-78
2021/09/20 02:26:53;;;;;;;3.22;2.63;;;13.30;70.40;;;;;;5033813;28;20022;-78
2021/09/20 02:29:19;;;;;;;4.07;2.92;;;13.30;70.30;;;;;;5034356;28;20382;-78
2021/09/20 02:31:45;;;;;;;2.13;1.88;;;13.30;70.30;;;;;;5034165;28;20028;-78
2021/09/20 02:34:10;;;;;;;2.70;2.40;;;13.30;70.40;;;;;;5033709;28;20045;-78
2021/09/20 02:36:36;;;;;;;3.72;2.80;;;13.30;70.30;;;;;;5033697;28;20036;-79
2021/09/20 02:39:02;;;;;;;3.17;2.70;;;13.30;70.30;;;;;;5033527;28;20048;-79
2021/09/20 02:41:28;;;;;;;3.60;2.72;;;13.30;70.30;;;;;;5015935;28;20018;-78
2021/09/20 02:43:54;;;;;;;4.47;3.17;;;13.20;70.30;;;;;;5015670;28;20470;-78
2021/09/20 02:46:19;;;;;;;3.53;2.75;;;13.20;70.10;;;;;;5033709;28;20033;-78
2021/09/20 02:48:45;;;;;;;4.15;2.97;;;13.20;70.20;;;;;;5027518;28;20111;-78
2021/09/20 02:51:10;;;;;;;2.70;2.20;;;13.20;70.20;;;;;;5032000;28;20539;-78
2021/09/20 02:53:36;;;;;;;2.30;2.10;;;13.20;70.20;;;;;;5024238;28;20116;-78
2021/09/20 02:56:04;;;;;;;2.35;1.90;;;13.20;70.20;;;;;;5019847;28;20038;-78
2021/09/20 02:58:30;;;;;;;3.38;2.03;;;13.20;70.20;;;;;;5007953;28;20017;-78
2021/09/20 03:00:55;;;;;;;2.28;2.00;;;13.10;70.10;;;;;;5015403;28;20025;-78
2021/09/20 03:03:21;;;;;;;3.38;2.60;;;13.10;70.10;;;;;;5006406;28;20055;-78
2021/09/20 03:05:46;;;;;;;2.38;2.15;;;13.10;70.20;;;;;;5052142;28;20086;-78
2021/09/20 03:08:12;;;;;;;2.95;2.25;;;13.10;70.20;;;;;;5052514;28;20032;-78
2021/09/20 03:10:37;;;;;;;2.13;1.92;;;13.10;70.20;;;;;;5030900;28;20033;-78
2021/09/20 03:13:04;;;;;;;2.65;2.20;;;13.10;70.20;;;;;;5024440;28;20025;-77
2021/09/20 03:15:29;;;;;;;2.88;2.17;;;13.00;70.20;;;;;;5018139;28;20029;-77
2021/09/20 03:17:55;;;;;;;2.35;2.15;;;13.00;70.20;;;;;;5021868;28;20029;-77
2021/09/20 03:20:21;;;;;;;3.22;2.17;;;13.00;70.30;;;;;;5022094;28;20175;-77
2021/09/20 03:22:46;;;;;;;2.47;2.20;;;13.00;70.30;;;;;;5016543;28;20497;-77
2021/09/20 03:25:13;;;;;;;2.60;1.95;;;13.00;70.30;;;;;;5028599;28;20036;-77
2021/09/20 03:27:39;;;;;;;2.60;2.22;;;13.00;70.30;;;;;;5020329;28;20149;-77
2021/09/20 03:30:06;;;;;;;2.45;2.15;;;12.90;70.30;;;;;;5007612;28;20041;-77
2021/09/20 03:32:32;;;;;;;2.20;2.00;;;12.80;70.40;;;;;;5018171;28;20485;-77
2021/09/20 03:34:58;;;;;;;2.67;2.40;;;12.80;70.40;;;;;;5023265;28;20379;-77
2021/09/20 03:37:23;;;;;;;2.80;2.20;;;12.80;70.40;;;;;;5020257;28;20053;-77
2021/09/20 03:39:49;;;;;;;3.45;2.40;;;12.70;70.60;;;;;;5017909;28;20408;-77
2021/09/20 03:42:14;;;;;;;3.05;2.50;;;12.70;70.80;;;;;;5002745;28;20052;-77
2021/09/20 03:44:40;;;;;;;3.08;2.65;;;12.70;70.90;;;;;;5020950;28;20484;-77
2021/09/20 03:47:05;;;;;;;3.63;2.92;;;12.70;71.10;;;;;;5015667;28;20455;-77
2021/09/20 03:49:31;;;;;;;4.70;2.75;;;12.70;71.20;;;;;;5010835;28;20018;-77
2021/09/20 03:51:57;;;;;;;2.50;2.20;;;12.70;71.20;;;;;;5013501;28;20384;-77
2021/09/20 03:54:22;;;;;;;3.20;2.63;;;12.70;71.10;;;;;;5032677;28;20044;-77
2021/09/20 03:56:48;;;;;;;4.05;3.08;;;12.70;71.30;;;;;;5032135;28;20365;-77
2021/09/20 03:59:13;;;;;;;3.60;2.67;;;12.60;71.40;;;;;;5032375;28;20028;-77
2021/09/20 04:01:39;;;;;;;4.13;2.88;;;12.60;71.40;;;;;;5032033;28;20032;-78
2021/09/20 04:04:04;;;;;;;3.10;2.42;;;12.60;71.40;;;;;;5014585;28;20128;-78
2021/09/20 04:06:30;;;;;;;3.08;2.50;;;12.60;71.40;;;;;;5023833;28;20030;-78
2021/09/20 04:09:00;;;;;;;3.47;2.65;;;12.60;71.50;;;;;;5021761;28;20383;-79
2021/09/20 04:11:25;;;;;;;3.42;2.88;;;12.60;71.50;;;;;;5031391;28;20092;-79
2021/09/20 04:13:51;;;;;;;3.72;2.90;;;12.60;71.50;;;;;;5031123;28;20528;-77
2021/09/20 04:16:17;;;;;;;4.63;3.42;;;12.60;71.50;;;;;;5031500;28;20022;-77
2021/09/20 04:18:43;;;;;;;3.08;2.45;;;12.50;71.60;;;;;;5031019;28;20108;-76
2021/09/20 04:21:08;;;;;;;5.38;3.22;;;12.50;71.70;;;;;;5028915;28;20403;-77
2021/09/20 04:23:34;;;;;;;3.17;2.70;;;12.50;71.80;;;;;;5031335;28;20021;-77
2021/09/20 04:26:00;;;;;;;3.17;2.47;;;12.50;71.80;;;;;;5031698;28;20037;-77
2021/09/20 04:28:25;;;;;;;3.95;2.95;;;12.50;71.80;;;;;;5031074;28;20021;-77
2021/09/20 04:30:51;;;;;;;4.45;3.05;;;12.40;71.90;;;;;;5012317;28;20390;-77
2021/09/20 04:33:19;;;;;;;3.35;2.80;;;12.40;72.00;;;;;;5030377;28;20059;-77
2021/09/20 04:35:45;;;;;;;4.78;3.22;;;12.40;72.00;;;;;;5030800;28;20088;-77
2021/09/20 04:38:11;;;;;;;4.68;3.53;;;12.40;72.10;;;;;;5031117;28;20439;-81
2021/09/20 04:40:37;;;;;;;3.88;2.85;;;12.40;72.10;;;;;;5012857;28;20056;-81
2021/09/20 04:43:03;;;;;;;3.55;2.90;;;12.30;72.10;;;;;;5031272;28;20033;-82
2021/09/20 04:45:29;;;;;;;3.35;2.63;;;12.30;72.20;;;;;;5030860;28;20075;-79
2021/09/20 04:47:55;;;;;;;5.50;4.20;;;12.20;72.30;;;;;;5022124;28;20061;-80
2021/09/20 04:50:21;;;;;;;3.63;2.95;;;12.10;72.60;;;;;;5021046;28;20476;-81
2021/09/20 04:52:46;;;;;;;4.00;2.95;;;12.10;72.70;;;;;;5012278;28;20032;-80
2021/09/20 04:55:12;;;;;;;4.13;2.90;;;12.10;72.80;;;;;;5009442;28;20037;-81
2021/09/20 04:57:38;;;;;;;3.10;2.63;;;12.10;72.80;;;;;;5008428;28;20056;-81
2021/09/20 05:00:06;;;;;;;4.57;3.20;;;12.10;72.90;;;;;;5013302;28;20025;-80
2021/09/20 05:02:31;;;;;;;4.43;2.58;;;12.00;73.00;;;;;;5030406;28;20101;-81
2021/09/20 05:04:57;;;;;;;3.38;2.63;;;12.00;73.00;;;;;;5028752;28;20538;-80
2021/09/20 05:07:22;;;;;;;4.35;3.40;;;12.00;73.10;;;;;;5032685;28;20032;-79
2021/09/20 05:09:48;;;;;;;4.03;3.05;;;12.00;73.20;;;;;;5035174;28;20454;-80
2021/09/20 05:12:13;;;;;;;3.88;3.25;;;11.90;73.30;;;;;;5033482;28;20026;-81
2021/09/20 05:14:39;;;;;;;4.88;3.17;;;11.90;73.40;;;;;;5035240;28;20029;-80
2021/09/20 05:17:05;;;;;;;3.80;3.15;;;11.90;73.40;;;;;;5011644;28;20028;-81
2021/09/20 05:19:31;;;;;;;4.68;3.53;;;11.90;73.40;;;;;;5029719;28;20021;-81
2021/09/20 05:21:57;;;;;;;4.75;3.70;;;11.90;73.60;;;;;;5010024;28;20073;-80
2021/09/20 05:24:23;;;;;;;4.47;3.58;;;11.90;73.60;;;;;;5023975;28;20030;-82
2021/09/20 05:26:49;;;;;;;4.75;3.45;;;11.90;73.60;;;;;;5033035;28;20125;-81
2021/09/20 05:29:14;;;;;;;4.93;3.58;;;11.90;73.70;;;;;;5030203;28;20120;-81
2021/09/20 05:31:40;;;;;;;4.82;3.67;;;11.90;73.80;;;;;;5030489;28;20027;-80
2021/09/20 05:34:06;;;;;;;4.85;3.60;;;11.80;73.70;;;;;;5028658;28;20072;-81
2021/09/20 05:36:32;;;;;;;4.35;3.45;;;11.80;73.90;;;;;;5028137;28;20030;-81
2021/09/20 05:38:57;;;;;;;5.50;4.40;;;11.80;74.00;;;;;;5027019;28;20018;-79
2021/09/20 05:41:23;;;;;;;4.93;3.75;;;11.70;74.00;;;;;;5022915;28;20661;-80
2021/09/20 05:43:49;;;;;;;4.28;3.50;;;11.80;74.10;;;;;;5026209;28;20029;-79
2021/09/20 05:46:14;;;;;;;5.32;4.22;;;11.80;74.10;;;;;;5027167;28;20480;-79
2021/09/20 05:48:40;;;;;;;5.45;3.70;;;11.80;74.10;;;;;;5028626;28;20025;-80
2021/09/20 05:51:06;;;;;;;4.68;3.55;;;11.80;74.10;;;;;;5037709;28;20108;-81
2021/09/20 05:53:32;;;;;;;4.90;3.40;;;11.80;74.10;;;;;;5014201;28;20485;-80
2021/09/20 05:55:57;;;;;;;5.55;3.70;;;11.90;74.20;;;;;;5032765;28;20036;-80
2021/09/20 05:58:23;;;;;;;4.80;3.75;;;12.00;74.30;;;;;;5033962;28;20127;-81
2021/09/20 06:00:50;;;;;;;6.65;4.00;;;12.10;74.40;;;;;;5039797;28;20040;-80
2021/09/20 06:03:16;;;;;;;5.38;3.75;;;12.30;74.50;;;;;;5048148;28;20021;-81
2021/09/20 06:05:42;;;;;;;4.63;3.45;;;12.90;73.60;;;;;;5035295;28;20460;-81
2021/09/20 06:08:08;;;;;;;5.85;4.40;;;13.80;71.00;;;;;;5032990;28;20129;-80
2021/09/20 06:10:35;;;;;;;5.72;4.35;;;14.30;68.70;;;;;;5033743;28;20420;-80
2021/09/20 06:13:01;;;;;;;5.68;3.90;;;14.10;68.20;;;;;;5031525;28;20029;-80
2021/09/20 06:15:26;;;;;;;3.85;3.00;;;13.80;68.80;;;;;;5030025;28;20037;-79
2021/09/20 06:17:52;;;;;;;3.65;2.97;;;13.70;69.40;;;;;;5028453;28;20455;-79
2021/09/20 06:20:17;;;;;;;4.22;3.15;;;13.70;69.70;;;;;;5030877;28;20021;-80
2021/09/20 06:22:43;;;;;;;5.20;4.00;;;13.60;70.00;;;;;;5023319;28;20029;-80
2021/09/20 06:25:09;;;;;;;7.05;4.93;;;13.60;70.20;;;;;;5009560;28;20095;-80
2021/09/20 06:27:35;;;;;;;5.38;3.50;;;13.50;70.30;;;;;;5024585;28;20026;-80
2021/09/20 06:30:04;;;;;;;5.35;4.50;;;13.40;70.40;;;;;;5025776;28;20115;-79
2021/09/20 06:32:29;;;;;;;5.30;3.70;;;13.40;70.50;;;;;;5007242;28;20033;-79
2021/09/20 06:34:55;;;;;;;4.38;3.42;;;13.50;70.50;;;;;;5039700;28;20029;-79
2021/09/20 06:37:21;;;;;;;5.28;4.05;;;13.50;70.50;;;;;;5032268;28;20025;-80
2021/09/20 06:39:46;;;;;;;5.75;4.55;;;13.50;70.30;;;;;;5020518;28;20026;-80
2021/09/20 06:42:12;;;;;;;5.43;4.13;;;13.50;70.10;;;;;;5030366;28;20572;-79
2021/09/20 06:44:37;;;;;;;6.40;5.07;;;13.50;69.90;;;;;;5027336;28;20037;-79
2021/09/20 06:47:03;;;;;;;5.20;3.80;;;13.50;69.70;;;;;;5026283;28;20018;-80
2021/09/20 06:49:28;;;;;;;4.93;4.13;;;13.60;69.70;;;;;;5027548;28;20030;-80
2021/09/20 06:51:54;;;;;;;7.07;5.53;;;13.60;69.50;;;;;;5024077;28;20419;-80
2021/09/20 06:54:21;;;;;;;6.47;5.43;;;13.70;69.00;;;;;;5023832;28;20530;-80
2021/09/20 06:56:47;;;;;;;7.63;5.88;;;13.80;68.60;;;;;;5019051;28;20036;-80
2021/09/20 06:59:13;;;;;;;6.75;5.30;;;13.90;67.80;;;;;;5022673;28;20029;-80
2021/09/20 07:01:38;;;;;;;7.85;6.35;;;13.90;67.40;;;;;;5031356;28;20021;-81
2021/09/20 07:04:04;;;;;;;8.00;5.63;;;13.90;66.90;;;;;;5042166;28;20029;-79
2021/09/20 07:06:30;;;;;;;7.70;5.97;;;13.90;66.50;;;;;;5014245;28;20063;-79
2021/09/20 07:08:56;;;;;;;7.90;5.50;;;13.90;65.90;;;;;;5031427;28;20026;-80
2021/09/20 07:11:22;;;;;;;6.30;4.97;;;13.90;65.80;;;;;;5031712;28;20444;-81
2021/09/20 07:13:47;;;;;;;6.68;5.40;;;14.00;66.00;;;;;;5032175;28;20033;-80
2021/09/20 07:16:13;;;;;;;7.47;5.47;;;14.10;66.10;;;;;;5017792;28;20022;-81
2021/09/20 07:18:38;;;;;;;6.85;5.45;;;14.10;65.30;;;;;;5028595;28;20025;-81
2021/09/20 07:21:04;;;;;;;7.82;5.88;;;14.20;65.20;;;;;;5026007;28;20464;-81
2021/09/20 07:23:30;;;;;;;6.25;5.10;;;14.20;64.80;;;;;;5031446;28;20185;-81
2021/09/20 07:25:55;;;;;;;8.35;6.18;;;14.20;64.80;;;;;;5018588;28;20073;-81
2021/09/20 07:28:21;;;;;;;6.70;4.97;;;14.30;64.30;;;;;;5023877;28;20095;-83
2021/09/20 07:30:47;;;;;;;5.93;4.63;;;14.40;64.10;;;;;;5010826;28;20434;-82
2021/09/20 07:33:13;;;;;;;6.72;5.30;;;14.40;63.60;;;;;;5009423;28;20025;-82
2021/09/20 07:35:38;;;;;;;6.63;5.47;;;14.40;63.00;;;;;;5031440;28;20032;-82
2021/09/20 07:38:04;;;;;;;5.32;4.32;;;14.40;62.90;;;;;;5030832;28;20079;-83
2021/09/20 07:40:30;;;;;;;5.85;4.30;;;14.40;63.00;;;;;;5030370;28;20416;-82
2021/09/20 07:42:58;;;;;;;6.88;5.72;;;14.50;63.00;;;;;;5030580;28;20033;-82
2021/09/20 07:45:25;;;;;;;5.55;4.45;;;14.60;62.10;;;;;;5027891;28;20044;-82
2021/09/20 07:47:51;;;;;;;6.95;5.50;;;14.60;62.50;;;;;;5020964;28;20028;-82
2021/09/20 07:50:18;;;;;;;7.20;6.10;;;14.70;62.40;;;;;;5030874;28;20124;-82
2021/09/20 07:52:45;;;;;;;8.93;6.57;;;14.70;61.70;;;;;;5030399;28;20491;-81
2021/09/20 07:55:12;;;;;;;8.23;6.30;;;14.70;61.90;;;;;;5031158;28;20108;-82
2021/09/20 07:57:38;;;;;;;9.02;6.38;;;14.70;62.00;;;;;;5029076;28;20426;-81
2021/09/20 08:00:05;;;;;;;7.68;6.40;;;14.80;62.20;;;;;;5031778;28;20025;-81
2021/09/20 08:02:31;;;;;;;7.05;6.32;;;14.70;62.00;;;;;;5031891;28;20025;-82
2021/09/20 08:04:56;;;;;;;10.15;5.72;;;14.80;62.10;;;;;;5013405;28;20030;-82
2021/09/20 08:07:22;;;;;;;7.97;5.63;;;14.90;62.20;;;;;;5025367;28;20030;-81
2021/09/20 08:09:48;;;;;;;7.72;6.10;;;14.90;62.20;;;;;;5019611;28;20479;-82
2021/09/20 08:12:13;;;;;;;8.18;6.47;;;15.00;61.80;;;;;;5024393;28;20026;-81
2021/09/20 08:14:41;;;;;;;8.57;6.32;;;15.00;61.60;;;;;;5027253;28;20028;-82
2021/09/20 08:17:07;;;;;;;6.25;4.88;;;15.00;61.10;;;;;;5024935;28;20087;-81
2021/09/20 08:19:33;;;;;;;7.18;6.18;;;15.10;61.50;;;;;;5021570;28;20072;-82
2021/09/20 08:21:58;;;;;;;7.40;5.75;;;15.10;61.10;;;;;;5026043;28;20056;-82
2021/09/20 08:24:24;;;;;;;8.77;6.05;;;15.20;61.20;;;;;;5031382;28;20396;-82
2021/09/20 08:26:49;;;;;;;7.68;6.88;;;15.20;60.60;;;;;;5030034;28;20393;-83
2021/09/20 08:29:15;;;;;;;7.15;5.40;;;15.20;60.10;;;;;;5031022;28;20426;-82
2021/09/20 08:31:40;;;;;;;8.45;6.05;;;15.30;60.20;;;;;;5030179;28;20037;-82
2021/09/20 08:34:06;;;;;;;7.13;4.72;;;15.30;60.00;;;;;;5012803;28;20032;-83
2021/09/20 08:36:31;;;;;;;5.70;4.88;;;15.40;60.30;;;;;;4995912;28;20542;-82
2021/09/20 08:38:58;;;;;;;6.43;4.72;;;15.50;60.30;;;;;;5028185;28;20033;-80
2021/09/20 08:41:23;;;;;;;7.30;5.72;;;15.60;60.00;;;;;;5012935;28;20060;-82
2021/09/20 08:43:49;;;;;;;4.80;4.03;;;15.70;59.40;;;;;;5031313;28;20048;-82
2021/09/20 08:46:14;;;;;;;8.05;5.63;;;15.80;59.60;;;;;;5029566;28;20029;-81
2021/09/20 08:48:46;;;;;;;5.95;4.95;;;15.80;59.10;;;;;;5010190;28;20520;-81
2021/09/20 08:51:13;;;;;;;5.47;4.77;;;15.90;58.90;;;;;;5030106;28;20017;-81
2021/09/20 08:53:39;;;;;;;5.32;3.85;;;15.90;58.40;;;;;;5028474;28;21141;-81
2021/09/20 08:56:06;;;;;;;5.20;3.92;;;15.90;58.80;;;;;;5021089;28;20026;-80
2021/09/20 08:58:32;;;;;;;6.65;4.70;;;16.00;58.80;;;;;;5023431;28;20031;-81
2021/09/20 09:00:58;;;;;;;6.65;5.38;;;16.10;57.50;;;;;;5021223;28;20025;-80
2021/09/20 09:03:25;;;;;;;5.70;4.80;;;16.00;57.00;;;;;;5022722;28;20017;-82
2021/09/20 09:05:51;;;;;;;6.13;4.50;;;16.00;57.30;;;;;;5010751;28;20449;-82
2021/09/20 09:08:20;;;;;;;6.20;4.90;;;16.10;57.70;;;;;;5029693;28;20164;-83
2021/09/20 09:10:58;;;;;;;6.07;5.25;;;16.10;57.20;;;;;;5029116;28;20025;-82
2021/09/20 09:13:33;;;;;;;6.03;4.90;;;16.00;57.00;;;;;;5030957;28;20056;-83
2021/09/20 09:16:11;;;;;;;6.18;4.85;;;16.00;57.20;;;;;;5030472;28;20052;-83
2021/09/20 09:19:15;;;;;;;7.35;4.78;;;16.00;57.40;;;;;;5030320;28;20018;-83
2021/09/20 09:21:43;;;;;;;6.40;4.15;;;16.10;57.00;;;;;;5005577;28;20025;-83
2021/09/20 09:24:13;;;;;;;5.32;4.15;;;16.20;57.00;;;;;;5026598;28;20052;-83
2021/09/20 09:26:53;;;;;;;6.70;5.07;;;16.30;56.30;;;;;;5030812;28;20388;-83
2021/09/20 09:29:19;;;;;;;5.05;4.15;;;16.30;55.90;;;;;;5032299;28;20728;-83
2021/09/20 09:31:55;;;;;;;7.03;5.07;;;16.40;55.90;;;;;;5032082;28;20112;-82
2021/09/20 09:34:30;;;;;;;5.32;4.15;;;16.40;55.60;;;;;;5032610;28;20511;-83
2021/09/20 09:37:13;;;;;;;5.05;4.13;;;16.50;56.00;;;;;;5032375;28;20473;-84
2021/09/20 09:39:40;;;;;;;4.05;3.20;;;16.60;56.80;;;;;;5030805;28;20025;-82
2021/09/20 09:42:21;;;;;;;5.32;4.10;;;16.70;56.40;;;;;;5031450;28;20075;-83
2021/09/20 09:44:47;;;;;;;4.95;4.20;;;16.70;55.40;;;;;;5033191;28;20041;-83
2021/09/20 09:47:26;;;;;;;4.15;3.60;;;16.80;55.30;;;;;;5032967;28;20038;-83
2021/09/20 09:50:16;;;;;;;5.13;4.22;;;16.80;55.10;;;;;;5033381;28;20108;-83
2021/09/20 09:52:42;;;;;;;5.90;4.10;;;16.80;54.50;;;;;;5026202;28;20445;-82
2021/09/20 09:55:09;;;;;;;5.13;3.50;;;16.90;54.70;;;;;;5033727;28;20083;-83
2021/09/20 09:57:36;;;;;;;7.20;4.75;;;16.80;54.80;;;;;;5032638;28;20033;-82
2021/09/20 10:00:07;;;;;;;4.22;3.70;;;16.80;53.80;;;;;;5033145;28;20464;-81
2021/09/20 10:02:35;;;;;;;6.00;4.13;;;16.80;53.80;;;;;;5032961;28;20025;-80
2021/09/20 10:05:05;;;;;;;4.25;3.60;;;16.80;53.60;;;;;;5015166;28;20049;-80
2021/09/20 10:07:33;;;;;;;5.28;4.05;;;16.80;54.10;;;;;;5031893;28;20036;-81
2021/09/20 10:10:01;;;;;;;5.25;3.88;;;16.90;53.90;;;;;;5015573;28;20644;-81
2021/09/20 10:12:28;;;;;;;5.53;4.28;;;16.90;54.00;;;;;;5033303;28;20024;-82
2021/09/20 10:14:57;;;;;;;6.93;4.00;;;16.90;53.30;;;;;;5034017;28;20419;-84
2021/09/20 10:17:27;;;;;;;2.78;2.47;;;17.00;53.60;;;;;;5032653;28;20049;-84
2021/09/20 10:19:54;;;;;;;5.65;4.28;;;17.20;54.10;;;;;;5032989;28;20052;-82
2021/09/20 10:22:20;;;;;;;6.85;4.50;;;17.30;52.60;;;;;;5032781;28;20041;-83
2021/09/20 10:24:51;;;;;;;5.10;4.32;;;17.20;52.80;;;;;;5033198;28;20036;-83
2021/09/20 10:27:19;;;;;;;5.82;4.43;;;17.20;51.90;;;;;;5031551;28;20029;-84
2021/09/20 10:30:08;;;;;;;4.88;3.72;;;17.10;51.60;;;;;;5032559;28;20029;-82
2021/09/20 10:32:35;;;;;;;4.53;3.90;;;17.20;51.90;;;;;;5032892;28;20040;-83
2021/09/20 10:35:28;;;;;;;5.05;4.18;;;17.30;51.90;;;;;;5033074;28;20036;-84
2021/09/20 10:38:02;;;;;;;7.55;4.47;;;17.40;51.60;;;;;;5026192;28;20082;-83
2021/09/20 10:40:29;;;;;;;6.57;4.95;;;17.50;51.40;;;;;;5033027;28;20083;-83
2021/09/20 10:43:02;;;;;;;4.65;3.30;;;17.50;50.90;;;;;;5015059;28;20163;-83
2021/09/20 10:45:49;;;;;;;5.55;4.28;;;17.50;51.50;;;;;;5032834;28;20034;-80
2021/09/20 10:48:49;;;;;;;3.67;3.00;;;17.50;51.10;;;;;;5011655;28;20032;-80
2021/09/20 10:51:16;;;;;;;5.30;3.65;;;17.50;51.30;;;;;;5032018;28;20443;-82
2021/09/20 10:53:43;;;;;;;5.00;4.30;;;17.50;51.00;;;;;;5015110;28;20412;-82
2021/09/20 10:56:11;;;;;;;4.80;3.80;;;17.40;50.50;;;;;;5031421;28;20026;-82
2021/09/20 10:59:08;;;;;;;4.28;3.83;;;17.50;50.50;;;;;;5031582;28;20079;-81
2021/09/20 11:01:35;;;;;;;4.05;3.50;;;17.60;50.10;;;;;;5022399;28;20024;-82
2021/09/20 11:04:15;;;;;;;5.82;4.10;;;17.70;50.60;;;;;;5032329;28;20045;-82
2021/09/20 11:06:43;;;;;;;6.65;4.60;;;17.70;50.90;;;;;;5031722;28;20045;-82
2021/09/20 11:09:08;;;;;;;7.07;5.35;;;17.60;50.10;;;;;;5012668;28;20025;-81
2021/09/20 11:11:40;;;;;;;6.72;4.30;;;17.40;50.50;;;;;;5012146;28;20026;-81
2021/09/20 11:14:19;;;;;;;5.85;3.33;;;17.20;51.20;;;;;;5023125;28;20025;-81
2021/09/20 11:17:15;;;;;;;3.70;3.00;;;17.20;51.80;;;;;;5032669;28;20087;-81
2021/09/20 11:19:44;;;;;;;3.90;3.35;;;17.40;52.20;;;;;;5032043;28;20490;-81
2021/09/20 11:22:13;;;;;;;5.28;3.80;;;17.60;52.30;;;;;;5030114;28;20017;-81
2021/09/20 11:24:44;;;;;;;4.35;3.95;;;17.80;52.00;;;;;;5031730;28;20061;-81
2021/09/20 11:27:16;;;;;;;4.22;3.70;;;18.10;51.30;;;;;;5030702;28;20030;-80
2021/09/20 11:29:47;;;;;;;4.50;3.78;;;18.10;51.10;;;;;;5031597;28;20554;-81
2021/09/20 11:32:13;;;;;;;5.82;4.78;;;18.20;51.10;;;;;;5031613;28;20048;-81
2021/09/20 11:34:43;;;;;;;4.22;3.60;;;18.00;50.40;;;;;;5031304;28;20029;-81
2021/09/20 11:37:32;;;;;;;4.72;3.90;;;18.00;51.10;;;;;;5019271;28;20038;-80
2021/09/20 11:40:05;;;;;;;5.40;3.90;;;17.90;51.50;;;;;;5013791;28;20032;-81
2021/09/20 11:42:36;;;;;;;6.63;3.45;;;17.90;51.80;;;;;;5028986;28;20107;-81
2021/09/20 11:45:17;;;;;;;5.90;3.58;;;17.90;51.70;;;;;;5013215;28;20125;-81
2021/09/20 11:47:50;;;;;;;6.18;4.28;;;17.80;51.90;;;;;;5030928;28;20026;-81
2021/09/20 11:50:18;;;;;;;3.78;3.28;;;17.70;51.80;;;;;;5031064;28;20048;-81
2021/09/20 11:52:53;;;;;;;6.38;5.03;;;17.60;52.00;;;;;;5030444;28;20073;-79
2021/09/20 11:55:20;;;;;;;4.30;3.42;;;17.60;52.50;;;;;;5030859;28;20480;-79
2021/09/20 11:57:48;;;;;;;6.15;4.07;;;17.60;52.90;;;;;;5013012;28;20028;-79
2021/09/20 12:00:16;;;;;;;3.90;2.72;;;17.60;53.10;;;;;;5030778;28;20025;-79
2021/09/20 12:02:45;;;;;;;4.75;3.42;;;17.50;54.00;;;;;;5005630;28;20072;-81
2021/09/20 12:05:18;;;;;;;4.72;3.33;;;17.50;53.40;;;;;;5011229;28;20059;-81
2021/09/20 12:07:52;;;;;;;5.15;4.20;;;17.50;53.40;;;;;;5029320;28;20041;-81
2021/09/20 12:10:40;;;;;;;5.35;4.38;;;17.50;53.00;;;;;;5011639;28;20025;-81
2021/09/20 12:13:08;;;;;;;4.57;3.40;;;17.40;53.00;;;;;;5029812;28;20526;-82
2021/09/20 12:15:37;;;;;;;5.20;4.30;;;17.50;53.40;;;;;;5030103;28;20025;-81
2021/09/20 12:18:08;;;;;;;5.63;4.05;;;17.60;53.80;;;;;;5029653;28;20017;-81
2021/09/20 12:20:41;;;;;;;8.30;5.05;;;17.50;52.90;;;;;;5011687;28;20061;-81
2021/09/20 12:23:13;;;;;;;4.78;3.78;;;17.40;52.60;;;;;;5026540;28;20025;-81
2021/09/20 12:25:40;;;;;;;5.53;4.03;;;17.40;53.10;;;;;;5027747;28;20037;-81
2021/09/20 12:28:17;;;;;;;6.40;4.57;;;17.40;53.90;;;;;;5013036;28;20017;-81
2021/09/20 12:30:52;;;;;;;5.30;4.35;;;17.50;53.00;;;;;;5030880;28;20026;-81
2021/09/20 12:33:18;;;;;;;6.15;4.32;;;17.40;53.20;;;;;;5027151;28;20416;-81
2021/09/20 12:35:44;;;;;;;3.72;3.38;;;17.40;52.90;;;;;;5025676;28;20036;-81
2021/09/20 12:38:27;;;;;;;4.80;4.20;;;17.50;53.50;;;;;;5031536;28;20075;-81
2021/09/20 12:40:55;;;;;;;6.15;4.53;;;17.50;53.00;;;;;;5033550;28;20041;-81
2021/09/20 12:43:33;;;;;;;7.50;4.28;;;17.40;52.70;;;;;;5012171;28;20021;-81
2021/09/20 12:46:14;;;;;;;5.50;4.28;;;17.30;53.20;;;;;;5031372;28;20041;-81
2021/09/20 12:48:42;;;;;;;5.32;4.07;;;17.30;53.40;;;;;;5030290;28;20156;-81
2021/09/20 12:51:10;;;;;;;4.72;3.83;;;17.40;53.50;;;;;;5013471;28;20022;-81